This is the latest recevied weather packets stored in our database for station/object PP5EO-15. If no packets are shown the sender has not sent any weather packets the latest 10 day(s).
| Time | Temp. | Humidity | Pressure | Rain* | Wind** | Luminosity | Snow |
|---|---|---|---|---|---|---|---|
| 1776970438 | 38.33° C | 25% | 1015.7 hPa | - | - | - | - |
| 1776969843 | 38.33° C | 25% | 1015.7 hPa | - | - | - | - |
| 1776969248 | 38.33° C | 25% | 1015.8 hPa | - | - | - | - |
| 1776969028 | 38.89° C | 25% | 1015.8 hPa | - | - | - | - |
| 1776968654 | 38.89° C | 25% | 1015.8 hPa | - | - | - | - |
| 1776968057 | 39.44° C | 23% | 1015.8 hPa | - | - | - | - |
| 1776967467 | 40.56° C | 22% | 1015.8 hPa | - | - | - | - |
| 1776966940 | 42.22° C | 20% | 1015.8 hPa | - | - | - | - |
| 1776966275 | 42.22° C | 20% | 1015.8 hPa | - | - | - | - |
| 1776965678 | 42.78° C | 20% | 1015.7 hPa | - | - | - | - |
| 1776965085 | 43.33° C | 20% | 1015.8 hPa | - | - | - | - |
| 1776964487 | 42.22° C | 20% | 1015.9 hPa | - | - | - | - |
| 1776963893 | 41.11° C | 21% | 1015.9 hPa | - | - | - | - |
| 1776963298 | 40° C | 23% | 1016 hPa | - | - | - | - |
| 1776962703 | 41.67° C | 21% | 1016.2 hPa | - | - | - | - |
| 1776962108 | 44.44° C | 19% | 1016.4 hPa | - | - | - | - |
| 1776961513 | 44.44° C | 19% | 1016.7 hPa | - | - | - | - |
| 1776960918 | 43.33° C | 21% | 1016.9 hPa | - | - | - | - |
| 1776960323 | 41.67° C | 22% | 1016.9 hPa | - | - | - | - |
| 1776959738 | 40° C | 23% | 1017 hPa | - | - | - | - |
| 1776959133 | 42.22° C | 22% | 1017.1 hPa | - | - | - | - |
| 1776958539 | 44.44° C | 19% | 1017.4 hPa | - | - | - | - |
| 1776957943 | 44.44° C | 19% | 1017.6 hPa | - | - | - | - |
| 1776957348 | 44.44° C | 20% | 1017.8 hPa | - | - | - | - |
| 1776956753 | 43.33° C | 20% | 1017.9 hPa | - | - | - | - |
* Rain since midnight (hover to see other rain measurements)
** Current wind speed in m/s (hover to see current wind gust speed)